sensor_id;sensor_type;location;lat;lon;timestamp;pressure;altitude;pressure_sealevel;temperature;humidity
17635;BME280;8936;49.010;12.120;2023-08-08T00:02:14;98022.25;;;16.32;100.00
17635;BME280;8936;49.010;12.120;2023-08-08T00:04:40;98018.56;;;16.28;100.00
17635;BME280;8936;49.010;12.120;2023-08-08T00:07:07;98018.47;;;16.33;100.00
17635;BME280;8936;49.010;12.120;2023-08-08T00:09:33;98014.88;;;16.24;100.00
17635;BME280;8936;49.010;12.120;2023-08-08T00:12:01;98012.34;;;16.13;100.00
17635;BME280;8936;49.010;12.120;2023-08-08T00:14:27;98012.44;;;16.08;100.00
17635;BME280;8936;49.010;12.120;2023-08-08T00:16:53;98018.22;;;16.15;100.00
17635;BME280;8936;49.010;12.120;2023-08-08T00:19:20;98020.53;;;16.08;100.00
17635;BME280;8936;49.010;12.120;2023-08-08T00:21:46;98014.22;;;16.13;100.00
17635;BME280;8936;49.010;12.120;2023-08-08T00:24:12;98014.53;;;16.11;100.00
17635;BME280;8936;49.010;12.120;2023-08-08T00:26:39;98019.19;;;15.92;100.00
17635;BME280;8936;49.010;12.120;2023-08-08T00:29:06;98013.03;;;16.05;100.00
17635;BME280;8936;49.010;12.120;2023-08-08T00:31:33;98004.63;;;15.93;100.00
17635;BME280;8936;49.010;12.120;2023-08-08T00:33:59;98004.63;;;15.93;100.00
17635;BME280;8936;49.010;12.120;2023-08-08T00:36:25;98007.59;;;15.92;100.00
17635;BME280;8936;49.010;12.120;2023-08-08T00:38:52;98018.25;;;15.83;100.00
17635;BME280;8936;49.010;12.120;2023-08-08T00:41:18;98010.16;;;15.83;100.00
17635;BME280;8936;49.010;12.120;2023-08-08T00:43:44;98000.22;;;15.97;100.00
17635;BME280;8936;49.010;12.120;2023-08-08T00:46:12;98002.91;;;15.97;100.00
17635;BME280;8936;49.010;12.120;2023-08-08T00:48:38;98001.56;;;16.00;100.00
17635;BME280;8936;49.010;12.120;2023-08-08T00:51:05;97999.03;;;16.03;100.00
17635;BME280;8936;49.010;12.120;2023-08-08T00:53:31;98002.03;;;16.02;100.00
17635;BME280;8936;49.010;12.120;2023-08-08T00:55:58;97999.63;;;16.00;100.00
17635;BME280;8936;49.010;12.120;2023-08-08T00:58:25;97997.88;;;15.77;100.00
17635;BME280;8936;49.010;12.120;2023-08-08T01:00:51;97993.00;;;15.79;100.00
17635;BME280;8936;49.010;12.120;2023-08-08T01:03:21;98001.78;;;15.85;100.00
17635;BME280;8936;49.010;12.120;2023-08-08T01:05:48;98006.91;;;15.68;100.00
17635;BME280;8936;49.010;12.120;2023-08-08T01:08:19;98005.00;;;15.87;100.00
17635;BME280;8936;49.010;12.120;2023-08-08T01:10:47;98006.06;;;15.86;100.00
17635;BME280;8936;49.010;12.120;2023-08-08T01:13:14;98002.38;;;15.82;100.00
17635;BME280;8936;49.010;12.120;2023-08-08T01:15:42;97998.75;;;15.73;100.00
17635;BME280;8936;49.010;12.120;2023-08-08T01:18:09;97994.88;;;15.79;100.00
17635;BME280;8936;49.010;12.120;2023-08-08T01:20:37;97997.22;;;15.66;100.00
17635;BME280;8936;49.010;12.120;2023-08-08T01:23:08;98005.38;;;15.80;100.00
17635;BME280;8936;49.010;12.120;2023-08-08T01:25:37;97989.97;;;15.67;100.00
17635;BME280;8936;49.010;12.120;2023-08-08T01:28:05;97988.41;;;15.80;100.00
17635;BME280;8936;49.010;12.120;2023-08-08T01:30:32;97995.19;;;15.77;100.00
17635;BME280;8936;49.010;12.120;2023-08-08T01:32:58;97985.22;;;15.78;100.00
17635;BME280;8936;49.010;12.120;2023-08-08T01:35:25;97994.75;;;15.70;100.00
17635;BME280;8936;49.010;12.120;2023-08-08T01:37:54;97996.84;;;15.73;100.00
17635;BME280;8936;49.010;12.120;2023-08-08T01:40:23;97995.84;;;15.69;100.00
17635;BME280;8936;49.010;12.120;2023-08-08T01:42:52;97992.28;;;15.74;100.00
17635;BME280;8936;49.010;12.120;2023-08-08T01:45:19;97993.72;;;15.66;100.00
17635;BME280;8936;49.010;12.120;2023-08-08T01:47:49;97984.19;;;15.74;100.00
17635;BME280;8936;49.010;12.120;2023-08-08T01:50:15;97981.59;;;15.69;100.00
17635;BME280;8936;49.010;12.120;2023-08-08T01:52:41;97994.25;;;15.68;100.00
17635;BME280;8936;49.010;12.120;2023-08-08T01:55:08;97991.03;;;15.66;100.00
17635;BME280;8936;49.010;12.120;2023-08-08T01:57:35;97982.31;;;15.74;100.00
17635;BME280;8936;49.010;12.120;2023-08-08T02:00:03;97979.25;;;15.81;100.00
17635;BME280;8936;49.010;12.120;2023-08-08T02:02:30;97982.16;;;15.84;100.00
17635;BME280;8936;49.010;12.120;2023-08-08T02:04:57;97967.56;;;15.72;100.00
17635;BME280;8936;49.010;12.120;2023-08-08T02:07:23;97981.22;;;15.75;100.00
17635;BME280;8936;49.010;12.120;2023-08-08T02:09:50;97975.63;;;15.72;100.00
17635;BME280;8936;49.010;12.120;2023-08-08T02:12:16;97973.44;;;15.74;100.00
17635;BME280;8936;49.010;12.120;2023-08-08T02:14:42;97972.63;;;15.73;100.00
17635;BME280;8936;49.010;12.120;2023-08-08T02:17:10;97978.59;;;15.70;100.00
17635;BME280;8936;49.010;12.120;2023-08-08T02:19:36;97983.41;;;15.73;100.00
17635;BME280;8936;49.010;12.120;2023-08-08T02:22:03;97980.53;;;15.83;100.00
17635;BME280;8936;49.010;12.120;2023-08-08T02:24:29;97992.16;;;15.65;100.00
17635;BME280;8936;49.010;12.120;2023-08-08T02:26:56;97986.78;;;15.65;100.00
17635;BME280;8936;49.010;12.120;2023-08-08T02:29:22;97979.63;;;15.74;100.00
17635;BME280;8936;49.010;12.120;2023-08-08T02:31:48;97974.38;;;15.64;100.00
17635;BME280;8936;49.010;12.120;2023-08-08T02:34:16;97975.84;;;15.75;100.00
17635;BME280;8936;49.010;12.120;2023-08-08T02:36:42;97984.81;;;15.52;100.00
17635;BME280;8936;49.010;12.120;2023-08-08T02:39:09;97976.00;;;15.65;100.00
17635;BME280;8936;49.010;12.120;2023-08-08T02:41:35;97969.69;;;15.56;100.00
17635;BME280;8936;49.010;12.120;2023-08-08T02:44:02;97975.91;;;15.70;100.00
17635;BME280;8936;49.010;12.120;2023-08-08T02:46:28;97971.22;;;15.76;100.00
17635;BME280;8936;49.010;12.120;2023-08-08T02:48:54;97966.75;;;15.71;100.00
17635;BME280;8936;49.010;12.120;2023-08-08T02:51:22;97959.63;;;15.61;100.00
17635;BME280;8936;49.010;12.120;2023-08-08T02:53:48;97953.16;;;15.62;100.00
17635;BME280;8936;49.010;12.120;2023-08-08T02:56:15;97949.28;;;15.69;100.00
17635;BME280;8936;49.010;12.120;2023-08-08T02:58:41;97957.50;;;15.77;100.00
17635;BME280;8936;49.010;12.120;2023-08-08T03:01:07;97963.47;;;15.74;100.00
17635;BME280;8936;49.010;12.120;2023-08-08T03:03:34;97960.06;;;15.69;100.00
17635;BME280;8936;49.010;12.120;2023-08-08T03:06:00;97956.47;;;15.73;100.00
17635;BME280;8936;49.010;12.120;2023-08-08T03:08:28;97958.88;;;15.75;100.00
17635;BME280;8936;49.010;12.120;2023-08-08T03:10:54;97969.72;;;15.70;100.00
17635;BME280;8936;49.010;12.120;2023-08-08T03:13:21;97963.19;;;15.57;100.00
17635;BME280;8936;49.010;12.120;2023-08-08T03:15:47;97968.72;;;15.47;100.00
17635;BME280;8936;49.010;12.120;2023-08-08T03:18:13;97968.56;;;15.38;100.00
17635;BME280;8936;49.010;12.120;2023-08-08T03:20:40;97972.66;;;15.54;100.00
17635;BME280;8936;49.010;12.120;2023-08-08T03:23:06;97977.16;;;15.40;100.00
17635;BME280;8936;49.010;12.120;2023-08-08T03:25:34;97971.56;;;15.55;100.00
17635;BME280;8936;49.010;12.120;2023-08-08T03:28:00;97964.78;;;15.21;100.00
17635;BME280;8936;49.010;12.120;2023-08-08T03:30:26;97962.41;;;15.38;100.00
17635;BME280;8936;49.010;12.120;2023-08-08T03:32:53;97962.91;;;15.21;100.00
17635;BME280;8936;49.010;12.120;2023-08-08T03:35:19;97954.84;;;15.40;100.00
17635;BME280;8936;49.010;12.120;2023-08-08T03:37:45;97961.28;;;15.39;100.00
17635;BME280;8936;49.010;12.120;2023-08-08T03:40:12;97949.94;;;15.42;100.00
17635;BME280;8936;49.010;12.120;2023-08-08T03:42:41;97947.34;;;15.37;100.00
17635;BME280;8936;49.010;12.120;2023-08-08T03:45:08;97955.00;;;15.48;100.00
17635;BME280;8936;49.010;12.120;2023-08-08T03:47:34;97961.97;;;15.49;100.00
17635;BME280;8936;49.010;12.120;2023-08-08T03:50:00;97956.28;;;15.51;100.00
17635;BME280;8936;49.010;12.120;2023-08-08T03:52:28;97961.81;;;15.59;100.00
17635;BME280;8936;49.010;12.120;2023-08-08T03:54:54;97969.00;;;15.64;100.00
17635;BME280;8936;49.010;12.120;2023-08-08T03:57:20;97968.19;;;15.63;100.00
17635;BME280;8936;49.010;12.120;2023-08-08T03:59:48;97957.66;;;15.67;100.00
17635;BME280;8936;49.010;12.120;2023-08-08T04:02:14;97958.25;;;15.64;100.00
17635;BME280;8936;49.010;12.120;2023-08-08T04:04:40;97959.91;;;15.60;100.00
17635;BME280;8936;49.010;12.120;2023-08-08T04:07:07;97962.19;;;15.53;100.00
17635;BME280;8936;49.010;12.120;2023-08-08T04:09:33;97958.41;;;15.54;100.00
17635;BME280;8936;49.010;12.120;2023-08-08T04:11:59;97960.31;;;15.35;100.00
17635;BME280;8936;49.010;12.120;2023-08-08T04:14:26;97956.59;;;15.49;100.00
17635;BME280;8936;49.010;12.120;2023-08-08T04:16:53;97964.28;;;15.37;100.00
17635;BME280;8936;49.010;12.120;2023-08-08T04:19:20;97973.84;;;15.48;100.00
17635;BME280;8936;49.010;12.120;2023-08-08T04:21:46;97975.06;;;15.56;100.00
17635;BME280;8936;49.010;12.120;2023-08-08T04:24:12;97979.34;;;15.57;100.00
17635;BME280;8936;49.010;12.120;2023-08-08T04:26:39;97982.13;;;15.52;100.00
17635;BME280;8936;49.010;12.120;2023-08-08T04:29:05;97981.53;;;15.55;100.00
17635;BME280;8936;49.010;12.120;2023-08-08T04:31:31;97972.78;;;15.63;100.00
17635;BME280;8936;49.010;12.120;2023-08-08T04:33:59;97974.97;;;15.61;100.00
17635;BME280;8936;49.010;12.120;2023-08-08T04:36:26;97973.88;;;15.43;100.00
17635;BME280;8936;49.010;12.120;2023-08-08T04:38:52;97976.16;;;15.55;100.00
17635;BME280;8936;49.010;12.120;2023-08-08T04:41:19;97973.47;;;15.55;100.00
17635;BME280;8936;49.010;12.120;2023-08-08T04:43:45;97984.66;;;15.62;100.00
17635;BME280;8936;49.010;12.120;2023-08-08T04:46:11;97985.91;;;15.51;100.00
17635;BME280;8936;49.010;12.120;2023-08-08T04:48:38;97989.13;;;15.53;100.00
17635;BME280;8936;49.010;12.120;2023-08-08T04:51:06;97986.44;;;15.53;100.00
17635;BME280;8936;49.010;12.120;2023-08-08T04:53:32;97986.44;;;15.53;100.00
17635;BME280;8936;49.010;12.120;2023-08-08T04:55:58;97986.25;;;15.63;100.00
17635;BME280;8936;49.010;12.120;2023-08-08T04:58:25;97987.84;;;15.64;100.00
17635;BME280;8936;49.010;12.120;2023-08-08T05:00:51;97988.16;;;15.62;100.00
17635;BME280;8936;49.010;12.120;2023-08-08T05:03:17;98003.31;;;15.72;100.00
17635;BME280;8936;49.010;12.120;2023-08-08T05:05:44;97990.97;;;15.71;100.00
17635;BME280;8936;49.010;12.120;2023-08-08T05:08:12;97994.16;;;15.73;100.00
17635;BME280;8936;49.010;12.120;2023-08-08T05:10:38;97992.66;;;15.67;100.00
17635;BME280;8936;49.010;12.120;2023-08-08T05:13:05;97988.28;;;15.71;100.00
17635;BME280;8936;49.010;12.120;2023-08-08T05:15:31;97993.56;;;15.76;100.00
17635;BME280;8936;49.010;12.120;2023-08-08T05:17:57;97981.38;;;15.65;100.00
17635;BME280;8936;49.010;12.120;2023-08-08T05:20:24;97993.00;;;15.60;100.00
17635;BME280;8936;49.010;12.120;2023-08-08T05:22:50;97996.94;;;15.68;100.00
17635;BME280;8936;49.010;12.120;2023-08-08T05:25:18;97997.31;;;15.61;100.00
17635;BME280;8936;49.010;12.120;2023-08-08T05:27:45;98000.81;;;15.62;100.00
17635;BME280;8936;49.010;12.120;2023-08-08T05:30:12;98002.41;;;15.63;100.00
17635;BME280;8936;49.010;12.120;2023-08-08T05:32:38;97994.16;;;15.73;100.00
17635;BME280;8936;49.010;12.120;2023-08-08T05:35:05;98000.94;;;15.71;100.00
17635;BME280;8936;49.010;12.120;2023-08-08T05:37:31;97990.53;;;15.64;100.00
17635;BME280;8936;49.010;12.120;2023-08-08T05:39:58;97999.72;;;15.63;100.00
17635;BME280;8936;49.010;12.120;2023-08-08T05:42:25;97995.25;;;15.72;100.00
17635;BME280;8936;49.010;12.120;2023-08-08T05:44:52;98000.47;;;15.82;100.00
17635;BME280;8936;49.010;12.120;2023-08-08T05:47:18;97998.81;;;15.86;100.00
17635;BME280;8936;49.010;12.120;2023-08-08T05:49:44;97998.47;;;15.74;100.00
17635;BME280;8936;49.010;12.120;2023-08-08T05:52:11;97995.25;;;15.72;100.00
17635;BME280;8936;49.010;12.120;2023-08-08T05:54:37;98002.69;;;15.80;100.00
17635;BME280;8936;49.010;12.120;2023-08-08T05:57:04;97992.84;;;15.89;100.00
17635;BME280;8936;49.010;12.120;2023-08-08T05:59:31;98007.97;;;15.85;100.00
17635;BME280;8936;49.010;12.120;2023-08-08T06:01:58;98001.16;;;15.74;100.00
17635;BME280;8936;49.010;12.120;2023-08-08T06:04:24;97994.38;;;15.77;100.00
17635;BME280;8936;49.010;12.120;2023-08-08T06:06:51;98002.22;;;15.92;100.00
17635;BME280;8936;49.010;12.120;2023-08-08T06:09:17;98007.25;;;16.12;100.00
17635;BME280;8936;49.010;12.120;2023-08-08T06:11:44;98002.66;;;16.12;100.00
17635;BME280;8936;49.010;12.120;2023-08-08T06:14:10;98002.47;;;16.23;100.00
17635;BME280;8936;49.010;12.120;2023-08-08T06:16:38;97998.78;;;16.18;100.00
17635;BME280;8936;49.010;12.120;2023-08-08T06:19:04;98001.69;;;16.22;100.00
17635;BME280;8936;49.010;12.120;2023-08-08T06:21:31;97996.06;;;16.18;100.00
17635;BME280;8936;49.010;12.120;2023-08-08T06:23:57;97990.88;;;16.08;100.00
17635;BME280;8936;49.010;12.120;2023-08-08T06:26:23;97995.00;;;16.19;100.00
17635;BME280;8936;49.010;12.120;2023-08-08T06:28:50;97998.09;;;16.27;100.00
17635;BME280;8936;49.010;12.120;2023-08-08T06:31:17;97985.03;;;16.47;100.00
17635;BME280;8936;49.010;12.120;2023-08-08T06:33:45;97984.69;;;16.67;100.00
17635;BME280;8936;49.010;12.120;2023-08-08T06:36:11;97974.38;;;16.56;100.00
17635;BME280;8936;49.010;12.120;2023-08-08T06:38:38;97970.88;;;16.69;100.00
17635;BME280;8936;49.010;12.120;2023-08-08T06:41:04;97979.28;;;16.81;100.00
17635;BME280;8936;49.010;12.120;2023-08-08T06:43:30;97977.03;;;17.10;100.00
17635;BME280;8936;49.010;12.120;2023-08-08T06:45:57;97966.50;;;17.22;100.00
17635;BME280;8936;49.010;12.120;2023-08-08T06:48:23;97963.06;;;17.31;100.00
17635;BME280;8936;49.010;12.120;2023-08-08T06:50:51;97971.53;;;17.51;100.00
17635;BME280;8936;49.010;12.120;2023-08-08T06:53:17;97969.31;;;17.53;100.00
17635;BME280;8936;49.010;12.120;2023-08-08T06:55:44;97974.06;;;17.70;100.00
17635;BME280;8936;49.010;12.120;2023-08-08T06:58:10;97971.09;;;17.80;100.00
17635;BME280;8936;49.010;12.120;2023-08-08T07:00:36;97976.88;;;17.87;100.00
17635;BME280;8936;49.010;12.120;2023-08-08T07:03:03;97975.22;;;18.00;100.00
17635;BME280;8936;49.010;12.120;2023-08-08T07:05:29;97983.47;;;18.25;100.00
17635;BME280;8936;49.010;12.120;2023-08-08T07:07:57;97974.94;;;18.41;100.00
17635;BME280;8936;49.010;12.120;2023-08-08T07:10:23;97970.06;;;18.51;100.00
17635;BME280;8936;49.010;12.120;2023-08-08T07:12:50;97971.72;;;18.61;100.00
17635;BME280;8936;49.010;12.120;2023-08-08T07:15:16;97967.56;;;18.63;100.00
17635;BME280;8936;49.010;12.120;2023-08-08T07:17:43;97968.38;;;18.64;100.00
17635;BME280;8936;49.010;12.120;2023-08-08T07:20:09;97955.97;;;18.63;100.00
17635;BME280;8936;49.010;12.120;2023-08-08T07:22:38;97963.03;;;18.81;100.00
17635;BME280;8936;49.010;12.120;2023-08-08T07:25:07;97965.91;;;18.93;100.00
17635;BME280;8936;49.010;12.120;2023-08-08T07:27:33;97957.63;;;18.98;100.00
17635;BME280;8936;49.010;12.120;2023-08-08T07:29:59;97951.28;;;19.11;100.00
17635;BME280;8936;49.010;12.120;2023-08-08T07:32:28;97955.56;;;18.95;100.00
17635;BME280;8936;49.010;12.120;2023-08-08T07:34:54;97951.25;;;18.94;100.00
17635;BME280;8936;49.010;12.120;2023-08-08T07:37:20;97954.81;;;19.03;100.00
17635;BME280;8936;49.010;12.120;2023-08-08T07:39:49;97950.16;;;19.04;100.00
17635;BME280;8936;49.010;12.120;2023-08-08T07:42:17;97944.16;;;19.15;100.00
17635;BME280;8936;49.010;12.120;2023-08-08T07:44:44;97944.44;;;19.22;100.00
17635;BME280;8936;49.010;12.120;2023-08-08T07:47:10;97948.75;;;19.23;100.00
17635;BME280;8936;49.010;12.120;2023-08-08T07:49:36;97931.88;;;19.09;100.00
17635;BME280;8936;49.010;12.120;2023-08-08T07:52:03;97946.81;;;18.98;100.00
17635;BME280;8936;49.010;12.120;2023-08-08T07:54:29;97944.44;;;19.05;100.00
17635;BME280;8936;49.010;12.120;2023-08-08T07:56:56;97955.91;;;18.94;100.00
17635;BME280;8936;49.010;12.120;2023-08-08T07:59:23;97950.59;;;18.80;100.00
17635;BME280;8936;49.010;12.120;2023-08-08T08:01:50;97952.50;;;18.88;100.00
17635;BME280;8936;49.010;12.120;2023-08-08T08:04:16;97956.66;;;18.85;100.00
17635;BME280;8936;49.010;12.120;2023-08-08T08:06:42;97952.31;;;18.59;100.00
17635;BME280;8936;49.010;12.120;2023-08-08T08:09:09;97952.94;;;18.56;100.00
17635;BME280;8936;49.010;12.120;2023-08-08T08:11:35;97944.63;;;18.52;100.00
17635;BME280;8936;49.010;12.120;2023-08-08T08:14:01;97942.22;;;18.51;100.00
17635;BME280;8936;49.010;12.120;2023-08-08T08:16:30;97943.44;;;18.45;100.00
17635;BME280;8936;49.010;12.120;2023-08-08T08:18:57;97938.22;;;18.48;100.00
17635;BME280;8936;49.010;12.120;2023-08-08T08:21:23;97940.25;;;18.34;100.00
17635;BME280;8936;49.010;12.120;2023-08-08T08:23:49;97944.38;;;18.31;100.00
17635;BME280;8936;49.010;12.120;2023-08-08T08:26:16;97939.91;;;18.27;100.00
17635;BME280;8936;49.010;12.120;2023-08-08T08:28:42;97940.53;;;18.32;100.00
17635;BME280;8936;49.010;12.120;2023-08-08T08:31:08;97934.19;;;18.28;100.00
17635;BME280;8936;49.010;12.120;2023-08-08T08:33:36;97931.28;;;18.16;100.00
17635;BME280;8936;49.010;12.120;2023-08-08T08:36:02;97940.03;;;18.22;100.00
17635;BME280;8936;49.010;12.120;2023-08-08T08:38:29;97929.84;;;18.19;100.00
17635;BME280;8936;49.010;12.120;2023-08-08T08:40:56;97935.56;;;18.17;100.00
17635;BME280;8936;49.010;12.120;2023-08-08T08:43:22;97935.47;;;18.31;100.00
17635;BME280;8936;49.010;12.120;2023-08-08T08:45:50;97931.34;;;18.33;100.00
17635;BME280;8936;49.010;12.120;2023-08-08T08:48:17;97927.44;;;18.17;100.00
17635;BME280;8936;49.010;12.120;2023-08-08T08:50:46;97925.47;;;18.40;100.00
17635;BME280;8936;49.010;12.120;2023-08-08T08:53:13;97922.78;;;18.49;100.00
17635;BME280;8936;49.010;12.120;2023-08-08T08:55:40;97920.03;;;18.71;100.00
17635;BME280;8936;49.010;12.120;2023-08-08T08:58:07;97923.38;;;18.76;100.00
17635;BME280;8936;49.010;12.120;2023-08-08T09:00:34;97907.47;;;18.92;100.00
17635;BME280;8936;49.010;12.120;2023-08-08T09:03:01;97911.16;;;19.13;100.00
17635;BME280;8936;49.010;12.120;2023-08-08T09:05:27;97901.28;;;19.17;100.00
17635;BME280;8936;49.010;12.120;2023-08-08T09:07:55;97903.69;;;19.36;100.00
17635;BME280;8936;49.010;12.120;2023-08-08T09:10:22;97908.78;;;19.63;100.00
17635;BME280;8936;49.010;12.120;2023-08-08T09:12:50;97909.88;;;19.62;100.00
17635;BME280;8936;49.010;12.120;2023-08-08T09:15:16;97893.31;;;19.64;100.00
17635;BME280;8936;49.010;12.120;2023-08-08T09:17:43;97895.50;;;19.79;100.00
17635;BME280;8936;49.010;12.120;2023-08-08T09:20:11;97906.00;;;19.89;100.00
17635;BME280;8936;49.010;12.120;2023-08-08T09:22:37;97897.84;;;19.98;100.00
17635;BME280;8936;49.010;12.120;2023-08-08T09:25:06;97901.81;;;20.00;100.00
17635;BME280;8936;49.010;12.120;2023-08-08T09:27:33;97897.13;;;19.80;100.00
17635;BME280;8936;49.010;12.120;2023-08-08T09:29:59;97887.88;;;19.72;100.00
17635;BME280;8936;49.010;12.120;2023-08-08T09:32:28;97891.84;;;19.83;100.00
17635;BME280;8936;49.010;12.120;2023-08-08T09:34:55;97892.56;;;20.01;100.00
17635;BME280;8936;49.010;12.120;2023-08-08T09:37:21;97890.19;;;20.00;100.00
17635;BME280;8936;49.010;12.120;2023-08-08T09:39:55;97885.25;;;20.02;100.00
17635;BME280;8936;49.010;12.120;2023-08-08T09:42:23;97878.34;;;20.13;100.00
17635;BME280;8936;49.010;12.120;2023-08-08T09:44:50;97872.31;;;20.07;100.00
17635;BME280;8936;49.010;12.120;2023-08-08T09:47:16;97875.91;;;20.28;100.00
17635;BME280;8936;49.010;12.120;2023-08-08T09:49:43;97878.47;;;20.16;100.00
17635;BME280;8936;49.010;12.120;2023-08-08T09:52:10;97867.84;;;20.11;100.00
17635;BME280;8936;49.010;12.120;2023-08-08T09:54:37;97859.41;;;20.04;100.00
17635;BME280;8936;49.010;12.120;2023-08-08T09:57:04;97866.88;;;20.07;100.00
17635;BME280;8936;49.010;12.120;2023-08-08T09:59:33;97859.72;;;20.03;100.00
17635;BME280;8936;49.010;12.120;2023-08-08T10:01:59;97854.69;;;19.84;100.00
17635;BME280;8936;49.010;12.120;2023-08-08T10:04:26;97859.94;;;19.89;100.00
17635;BME280;8936;49.010;12.120;2023-08-08T10:06:53;97857.38;;;19.84;100.00
17635;BME280;8936;49.010;12.120;2023-08-08T10:09:19;97859.75;;;19.94;100.00
17635;BME280;8936;49.010;12.120;2023-08-08T10:11:46;97851.84;;;19.72;100.00
17635;BME280;8936;49.010;12.120;2023-08-08T10:14:13;97857.56;;;19.79;100.00
17635;BME280;8936;49.010;12.120;2023-08-08T10:16:43;97852.59;;;19.89;100.00
17635;BME280;8936;49.010;12.120;2023-08-08T10:19:10;97851.69;;;20.15;100.00
17635;BME280;8936;49.010;12.120;2023-08-08T10:21:37;97848.94;;;20.32;100.00
17635;BME280;8936;49.010;12.120;2023-08-08T10:24:04;97859.19;;;20.26;100.00
17635;BME280;8936;49.010;12.120;2023-08-08T10:26:32;97847.34;;;20.22;100.00
17635;BME280;8936;49.010;12.120;2023-08-08T10:28:59;97846.09;;;20.20;100.00
17635;BME280;8936;49.010;12.120;2023-08-08T10:31:26;97850.00;;;20.39;100.00
17635;BME280;8936;49.010;12.120;2023-08-08T10:34:01;97838.97;;;20.44;100.00
17635;BME280;8936;49.010;12.120;2023-08-08T10:36:42;97845.88;;;20.33;100.00
17635;BME280;8936;49.010;12.120;2023-08-08T10:39:10;97835.91;;;20.17;100.00
17635;BME280;8936;49.010;12.120;2023-08-08T10:41:43;97834.25;;;20.33;97.29
17635;BME280;8936;49.010;12.120;2023-08-08T10:44:10;97835.69;;;20.60;92.29
17635;BME280;8936;49.010;12.120;2023-08-08T10:46:39;97826.53;;;20.64;91.66
17635;BME280;8936;49.010;12.120;2023-08-08T10:49:07;97826.88;;;20.83;89.06
17635;BME280;8936;49.010;12.120;2023-08-08T10:51:35;97828.34;;;20.60;94.75
17635;BME280;8936;49.010;12.120;2023-08-08T10:54:05;97831.06;;;20.60;94.78
17635;BME280;8936;49.010;12.120;2023-08-08T10:56:31;97823.19;;;20.67;92.83
17635;BME280;8936;49.010;12.120;2023-08-08T10:58:58;97832.38;;;20.75;92.19
17635;BME280;8936;49.010;12.120;2023-08-08T11:01:24;97828.41;;;20.52;92.63
17635;BME280;8936;49.010;12.120;2023-08-08T11:03:51;97829.91;;;20.61;86.88
17635;BME280;8936;49.010;12.120;2023-08-08T11:06:19;97834.34;;;20.66;86.82
17635;BME280;8936;49.010;12.120;2023-08-08T11:08:46;97833.31;;;20.79;87.30
17635;BME280;8936;49.010;12.120;2023-08-08T11:11:13;97824.81;;;20.60;90.45
17635;BME280;8936;49.010;12.120;2023-08-08T11:13:39;97822.25;;;20.63;90.20
17635;BME280;8936;49.010;12.120;2023-08-08T11:16:05;97819.41;;;20.60;88.34
17635;BME280;8936;49.010;12.120;2023-08-08T11:18:32;97817.03;;;20.79;88.46
17635;BME280;8936;49.010;12.120;2023-08-08T11:20:58;97814.56;;;20.86;87.63
17635;BME280;8936;49.010;12.120;2023-08-08T11:23:26;97812.03;;;21.01;87.22
17635;BME280;8936;49.010;12.120;2023-08-08T11:25:52;97817.09;;;20.91;88.67
17635;BME280;8936;49.010;12.120;2023-08-08T11:28:18;97820.13;;;20.89;89.42
17635;BME280;8936;49.010;12.120;2023-08-08T11:30:45;97813.97;;;21.01;88.29
17635;BME280;8936;49.010;12.120;2023-08-08T11:33:12;97818.91;;;20.99;88.63
17635;BME280;8936;49.010;12.120;2023-08-08T11:35:42;97805.66;;;20.85;85.81
17635;BME280;8936;49.010;12.120;2023-08-08T11:38:10;97814.09;;;20.63;92.96
17635;BME280;8936;49.010;12.120;2023-08-08T11:40:38;97804.72;;;20.61;92.42
17635;BME280;8936;49.010;12.120;2023-08-08T11:43:05;97799.28;;;20.61;92.91
17635;BME280;8936;49.010;12.120;2023-08-08T11:45:32;97805.63;;;20.65;93.15
17635;BME280;8936;49.010;12.120;2023-08-08T11:47:59;97799.41;;;20.85;91.61
17635;BME280;8936;49.010;12.120;2023-08-08T11:50:25;97805.28;;;20.87;91.20
17635;BME280;8936;49.010;12.120;2023-08-08T11:52:54;97803.47;;;20.79;91.89
17635;BME280;8936;49.010;12.120;2023-08-08T11:55:20;97792.72;;;20.62;91.85
17635;BME280;8936;49.010;12.120;2023-08-08T11:57:50;97804.91;;;20.76;91.62
17635;BME280;8936;49.010;12.120;2023-08-08T12:00:18;97802.97;;;20.97;90.07
17635;BME280;8936;49.010;12.120;2023-08-08T12:02:45;97795.44;;;20.82;89.22
17635;BME280;8936;49.010;12.120;2023-08-08T12:05:12;97797.28;;;21.11;79.19
17635;BME280;8936;49.010;12.120;2023-08-08T12:07:42;97802.22;;;21.30;82.12
17635;BME280;8936;49.010;12.120;2023-08-08T12:10:14;97796.91;;;21.33;78.11
17635;BME280;8936;49.010;12.120;2023-08-08T12:12:41;97792.03;;;21.06;83.79
17635;BME280;8936;49.010;12.120;2023-08-08T12:15:10;97798.66;;;20.96;83.16
17635;BME280;8936;49.010;12.120;2023-08-08T12:17:36;97800.25;;;21.18;77.67
17635;BME280;8936;49.010;12.120;2023-08-08T12:20:04;97803.56;;;21.24;75.10
17635;BME280;8936;49.010;12.120;2023-08-08T12:22:30;97792.72;;;21.03;77.69
17635;BME280;8936;49.010;12.120;2023-08-08T12:24:57;97790.13;;;20.86;80.57
17635;BME280;8936;49.010;12.120;2023-08-08T12:27:23;97797.00;;;21.25;73.63
17635;BME280;8936;49.010;12.120;2023-08-08T12:29:49;97793.91;;;20.93;77.27
17635;BME280;8936;49.010;12.120;2023-08-08T12:32:18;97790.38;;;21.14;72.93
17635;BME280;8936;49.010;12.120;2023-08-08T12:34:45;97796.50;;;21.43;67.13
17635;BME280;8936;49.010;12.120;2023-08-08T12:37:11;97778.00;;;21.04;68.73
17635;BME280;8936;49.010;12.120;2023-08-08T12:39:37;97785.16;;;21.09;69.54
17635;BME280;8936;49.010;12.120;2023-08-08T12:42:04;97794.97;;;21.22;68.12
17635;BME280;8936;49.010;12.120;2023-08-08T12:44:30;97785.91;;;21.30;66.99
17635;BME280;8936;49.010;12.120;2023-08-08T12:46:56;97774.25;;;21.29;66.20
17635;BME280;8936;49.010;12.120;2023-08-08T12:49:24;97777.31;;;21.28;67.65
17635;BME280;8936;49.010;12.120;2023-08-08T12:51:50;97772.47;;;21.45;65.37